sensor_id;sensor_type;location;lat;lon;timestamp;P1;durP1;ratioP1;P2;durP2;ratioP2
85131;SDS011;75493;51.772;19.464;2024-02-21T00:01:17;11.48;;;6.38;;
85131;SDS011;75493;51.772;19.464;2024-02-21T00:03:43;16.33;;;6.70;;
85131;SDS011;75493;51.772;19.464;2024-02-21T00:06:09;11.90;;;6.30;;
85131;SDS011;75493;51.772;19.464;2024-02-21T00:08:35;14.40;;;6.50;;
85131;SDS011;75493;51.772;19.464;2024-02-21T00:11:00;13.40;;;5.93;;
85131;SDS011;75493;51.772;19.464;2024-02-21T00:13:26;15.20;;;5.88;;
85131;SDS011;75493;51.772;19.464;2024-02-21T00:15:52;13.95;;;6.53;;
85131;SDS011;75493;51.772;19.464;2024-02-21T00:18:18;11.27;;;5.78;;
85131;SDS011;75493;51.772;19.464;2024-02-21T00:20:44;11.55;;;5.57;;
85131;SDS011;75493;51.772;19.464;2024-02-21T00:23:10;10.52;;;5.55;;
85131;SDS011;75493;51.772;19.464;2024-02-21T00:25:36;13.60;;;6.32;;
85131;SDS011;75493;51.772;19.464;2024-02-21T00:28:03;15.38;;;5.85;;
85131;SDS011;75493;51.772;19.464;2024-02-21T00:30:30;12.32;;;5.13;;
85131;SDS011;75493;51.772;19.464;2024-02-21T00:32:56;10.50;;;6.07;;
85131;SDS011;75493;51.772;19.464;2024-02-21T00:35:22;13.38;;;5.63;;
85131;SDS011;75493;51.772;19.464;2024-02-21T00:37:48;11.52;;;6.70;;
85131;SDS011;75493;51.772;19.464;2024-02-21T00:40:14;11.50;;;5.28;;
85131;SDS011;75493;51.772;19.464;2024-02-21T00:42:45;17.83;;;6.32;;
85131;SDS011;75493;51.772;19.464;2024-02-21T00:45:11;13.50;;;4.80;;
85131;SDS011;75493;51.772;19.464;2024-02-21T00:47:37;12.45;;;5.75;;
85131;SDS011;75493;51.772;19.464;2024-02-21T00:50:03;13.02;;;6.13;;
85131;SDS011;75493;51.772;19.464;2024-02-21T00:52:29;10.52;;;5.13;;
85131;SDS011;75493;51.772;19.464;2024-02-21T00:54:55;11.32;;;6.13;;
85131;SDS011;75493;51.772;19.464;2024-02-21T00:57:20;11.38;;;6.30;;
85131;SDS011;75493;51.772;19.464;2024-02-21T00:59:46;13.30;;;5.55;;
85131;SDS011;75493;51.772;19.464;2024-02-21T01:02:13;13.98;;;5.20;;
85131;SDS011;75493;51.772;19.464;2024-02-21T01:04:39;11.43;;;5.38;;
85131;SDS011;75493;51.772;19.464;2024-02-21T01:07:05;15.93;;;6.88;;
85131;SDS011;75493;51.772;19.464;2024-02-21T01:09:30;12.55;;;5.32;;
85131;SDS011;75493;51.772;19.464;2024-02-21T01:11:56;17.48;;;7.40;;
85131;SDS011;75493;51.772;19.464;2024-02-21T01:14:22;12.50;;;5.97;;
85131;SDS011;75493;51.772;19.464;2024-02-21T01:16:48;11.77;;;6.07;;
85131;SDS011;75493;51.772;19.464;2024-02-21T01:19:14;12.32;;;6.20;;
85131;SDS011;75493;51.772;19.464;2024-02-21T01:21:40;9.90;;;5.50;;
85131;SDS011;75493;51.772;19.464;2024-02-21T01:24:06;12.18;;;6.05;;
85131;SDS011;75493;51.772;19.464;2024-02-21T01:26:32;13.43;;;6.45;;
85131;SDS011;75493;51.772;19.464;2024-02-21T01:28:58;12.32;;;6.30;;
85131;SDS011;75493;51.772;19.464;2024-02-21T01:31:24;17.08;;;6.40;;
85131;SDS011;75493;51.772;19.464;2024-02-21T01:33:50;14.02;;;7.55;;
85131;SDS011;75493;51.772;19.464;2024-02-21T01:36:16;16.15;;;7.65;;
85131;SDS011;75493;51.772;19.464;2024-02-21T01:38:43;12.70;;;6.30;;
85131;SDS011;75493;51.772;19.464;2024-02-21T01:41:09;13.60;;;6.95;;
85131;SDS011;75493;51.772;19.464;2024-02-21T01:43:35;13.30;;;6.38;;
85131;SDS011;75493;51.772;19.464;2024-02-21T01:46:01;11.75;;;6.50;;
85131;SDS011;75493;51.772;19.464;2024-02-21T01:48:27;15.82;;;7.00;;
85131;SDS011;75493;51.772;19.464;2024-02-21T01:50:53;13.57;;;7.15;;
85131;SDS011;75493;51.772;19.464;2024-02-21T01:53:21;13.15;;;6.30;;
85131;SDS011;75493;51.772;19.464;2024-02-21T01:55:48;16.17;;;6.85;;
85131;SDS011;75493;51.772;19.464;2024-02-21T01:58:14;14.73;;;7.07;;
85131;SDS011;75493;51.772;19.464;2024-02-21T02:00:41;11.48;;;6.13;;
85131;SDS011;75493;51.772;19.464;2024-02-21T02:03:09;15.77;;;7.32;;
85131;SDS011;75493;51.772;19.464;2024-02-21T02:05:45;15.18;;;7.32;;
85131;SDS011;75493;51.772;19.464;2024-02-21T02:08:12;16.90;;;7.05;;
85131;SDS011;75493;51.772;19.464;2024-02-21T02:10:38;18.85;;;7.57;;
85131;SDS011;75493;51.772;19.464;2024-02-21T02:13:04;15.05;;;7.22;;
85131;SDS011;75493;51.772;19.464;2024-02-21T02:15:43;14.05;;;7.55;;
85131;SDS011;75493;51.772;19.464;2024-02-21T02:18:12;13.93;;;6.75;;
85131;SDS011;75493;51.772;19.464;2024-02-21T02:20:39;21.42;;;8.30;;
85131;SDS011;75493;51.772;19.464;2024-02-21T02:25:31;21.08;;;6.97;;
85131;SDS011;75493;51.772;19.464;2024-02-21T02:27:57;14.55;;;6.90;;
85131;SDS011;75493;51.772;19.464;2024-02-21T02:30:23;23.00;;;8.65;;
85131;SDS011;75493;51.772;19.464;2024-02-21T02:32:48;15.82;;;6.38;;
85131;SDS011;75493;51.772;19.464;2024-02-21T02:35:14;14.43;;;6.95;;
85131;SDS011;75493;51.772;19.464;2024-02-21T02:37:47;14.30;;;7.55;;
85131;SDS011;75493;51.772;19.464;2024-02-21T02:40:13;13.90;;;6.90;;
85131;SDS011;75493;51.772;19.464;2024-02-21T02:42:39;14.82;;;6.90;;
85131;SDS011;75493;51.772;19.464;2024-02-21T02:45:05;21.23;;;8.38;;
85131;SDS011;75493;51.772;19.464;2024-02-21T02:47:31;17.98;;;7.47;;
85131;SDS011;75493;51.772;19.464;2024-02-21T02:49:57;19.00;;;7.70;;
85131;SDS011;75493;51.772;19.464;2024-02-21T02:52:23;13.32;;;7.45;;
85131;SDS011;75493;51.772;19.464;2024-02-21T02:54:49;15.80;;;7.35;;
85131;SDS011;75493;51.772;19.464;2024-02-21T02:57:17;19.02;;;7.75;;
85131;SDS011;75493;51.772;19.464;2024-02-21T02:59:47;15.50;;;6.75;;
85131;SDS011;75493;51.772;19.464;2024-02-21T03:02:12;17.00;;;7.45;;
85131;SDS011;75493;51.772;19.464;2024-02-21T03:04:42;16.65;;;8.15;;
85131;SDS011;75493;51.772;19.464;2024-02-21T03:07:07;14.18;;;6.47;;
85131;SDS011;75493;51.772;19.464;2024-02-21T03:09:33;13.70;;;7.00;;
85131;SDS011;75493;51.772;19.464;2024-02-21T03:11:59;18.33;;;7.53;;
85131;SDS011;75493;51.772;19.464;2024-02-21T03:14:31;16.23;;;7.00;;
85131;SDS011;75493;51.772;19.464;2024-02-21T03:17:00;21.40;;;8.57;;
85131;SDS011;75493;51.772;19.464;2024-02-21T03:19:27;16.90;;;7.93;;
85131;SDS011;75493;51.772;19.464;2024-02-21T03:21:53;14.52;;;7.93;;
85131;SDS011;75493;51.772;19.464;2024-02-21T03:24:19;17.92;;;7.22;;
85131;SDS011;75493;51.772;19.464;2024-02-21T03:26:45;19.17;;;8.10;;
85131;SDS011;75493;51.772;19.464;2024-02-21T03:29:15;19.85;;;7.90;;
85131;SDS011;75493;51.772;19.464;2024-02-21T03:31:41;17.63;;;6.93;;
85131;SDS011;75493;51.772;19.464;2024-02-21T03:34:07;18.42;;;7.90;;
85131;SDS011;75493;51.772;19.464;2024-02-21T03:36:33;14.88;;;7.35;;
85131;SDS011;75493;51.772;19.464;2024-02-21T03:38:59;19.17;;;8.50;;
85131;SDS011;75493;51.772;19.464;2024-02-21T03:41:25;16.17;;;7.88;;
85131;SDS011;75493;51.772;19.464;2024-02-21T03:43:51;18.08;;;7.63;;
85131;SDS011;75493;51.772;19.464;2024-02-21T03:46:17;17.42;;;8.30;;
85131;SDS011;75493;51.772;19.464;2024-02-21T03:48:43;16.15;;;7.60;;
85131;SDS011;75493;51.772;19.464;2024-02-21T03:51:10;18.58;;;7.30;;
85131;SDS011;75493;51.772;19.464;2024-02-21T03:53:36;18.50;;;6.55;;
85131;SDS011;75493;51.772;19.464;2024-02-21T03:56:02;14.57;;;8.02;;
85131;SDS011;75493;51.772;19.464;2024-02-21T03:58:32;17.17;;;6.60;;
85131;SDS011;75493;51.772;19.464;2024-02-21T04:01:01;18.25;;;6.80;;
85131;SDS011;75493;51.772;19.464;2024-02-21T04:03:27;14.95;;;7.03;;
85131;SDS011;75493;51.772;19.464;2024-02-21T04:05:53;21.48;;;10.13;;
85131;SDS011;75493;51.772;19.464;2024-02-21T04:08:19;32.13;;;20.35;;
85131;SDS011;75493;51.772;19.464;2024-02-21T04:10:45;27.60;;;19.13;;
85131;SDS011;75493;51.772;19.464;2024-02-21T04:13:11;26.98;;;16.77;;
85131;SDS011;75493;51.772;19.464;2024-02-21T04:15:37;41.22;;;26.98;;
85131;SDS011;75493;51.772;19.464;2024-02-21T04:18:03;52.70;;;38.40;;
85131;SDS011;75493;51.772;19.464;2024-02-21T04:20:29;85.43;;;72.95;;
85131;SDS011;75493;51.772;19.464;2024-02-21T04:22:55;60.42;;;46.90;;
85131;SDS011;75493;51.772;19.464;2024-02-21T04:25:21;48.92;;;38.63;;
85131;SDS011;75493;51.772;19.464;2024-02-21T04:27:47;27.25;;;20.45;;
85131;SDS011;75493;51.772;19.464;2024-02-21T04:30:13;26.17;;;14.32;;
85131;SDS011;75493;51.772;19.464;2024-02-21T04:32:40;18.52;;;10.00;;
85131;SDS011;75493;51.772;19.464;2024-02-21T04:35:06;24.20;;;9.32;;
85131;SDS011;75493;51.772;19.464;2024-02-21T04:37:32;17.65;;;7.47;;
85131;SDS011;75493;51.772;19.464;2024-02-21T04:39:58;19.13;;;8.73;;
85131;SDS011;75493;51.772;19.464;2024-02-21T04:42:24;14.73;;;7.00;;
85131;SDS011;75493;51.772;19.464;2024-02-21T04:44:50;19.13;;;8.13;;
85131;SDS011;75493;51.772;19.464;2024-02-21T04:47:16;14.57;;;6.95;;
85131;SDS011;75493;51.772;19.464;2024-02-21T04:49:42;13.82;;;7.47;;
85131;SDS011;75493;51.772;19.464;2024-02-21T04:52:08;18.42;;;9.35;;
85131;SDS011;75493;51.772;19.464;2024-02-21T04:54:34;17.83;;;8.68;;
85131;SDS011;75493;51.772;19.464;2024-02-21T04:57:00;16.67;;;10.35;;
85131;SDS011;75493;51.772;19.464;2024-02-21T04:59:26;26.33;;;10.15;;
85131;SDS011;75493;51.772;19.464;2024-02-21T05:01:52;20.77;;;8.88;;
85131;SDS011;75493;51.772;19.464;2024-02-21T05:04:18;16.45;;;9.27;;
85131;SDS011;75493;51.772;19.464;2024-02-21T05:06:44;14.77;;;8.18;;
85131;SDS011;75493;51.772;19.464;2024-02-21T05:09:10;21.70;;;8.90;;
85131;SDS011;75493;51.772;19.464;2024-02-21T05:11:36;25.10;;;9.35;;
85131;SDS011;75493;51.772;19.464;2024-02-21T05:14:05;19.73;;;8.50;;
85131;SDS011;75493;51.772;19.464;2024-02-21T05:16:31;18.70;;;8.63;;
85131;SDS011;75493;51.772;19.464;2024-02-21T05:18:58;20.80;;;8.88;;
85131;SDS011;75493;51.772;19.464;2024-02-21T05:21:24;14.00;;;7.93;;
85131;SDS011;75493;51.772;19.464;2024-02-21T05:23:50;17.27;;;8.90;;
85131;SDS011;75493;51.772;19.464;2024-02-21T05:26:20;19.15;;;9.48;;
85131;SDS011;75493;51.772;19.464;2024-02-21T05:28:46;17.92;;;8.25;;
85131;SDS011;75493;51.772;19.464;2024-02-21T05:31:12;21.85;;;8.88;;
85131;SDS011;75493;51.772;19.464;2024-02-21T05:33:39;17.63;;;8.70;;
85131;SDS011;75493;51.772;19.464;2024-02-21T05:36:05;17.35;;;8.73;;
85131;SDS011;75493;51.772;19.464;2024-02-21T05:38:31;16.98;;;9.48;;
85131;SDS011;75493;51.772;19.464;2024-02-21T05:40:57;23.02;;;8.93;;
85131;SDS011;75493;51.772;19.464;2024-02-21T05:43:23;23.63;;;9.40;;
85131;SDS011;75493;51.772;19.464;2024-02-21T05:45:49;20.38;;;8.57;;
85131;SDS011;75493;51.772;19.464;2024-02-21T05:48:15;16.33;;;9.25;;
85131;SDS011;75493;51.772;19.464;2024-02-21T05:50:41;21.27;;;10.27;;
85131;SDS011;75493;51.772;19.464;2024-02-21T05:53:07;15.60;;;8.98;;
85131;SDS011;75493;51.772;19.464;2024-02-21T05:55:35;20.70;;;8.48;;
85131;SDS011;75493;51.772;19.464;2024-02-21T05:58:01;15.90;;;7.85;;
85131;SDS011;75493;51.772;19.464;2024-02-21T06:00:27;17.48;;;8.02;;
85131;SDS011;75493;51.772;19.464;2024-02-21T06:02:53;21.40;;;9.02;;
85131;SDS011;75493;51.772;19.464;2024-02-21T06:05:19;15.73;;;8.45;;
85131;SDS011;75493;51.772;19.464;2024-02-21T06:07:45;19.58;;;9.43;;
85131;SDS011;75493;51.772;19.464;2024-02-21T06:10:11;16.95;;;8.70;;
85131;SDS011;75493;51.772;19.464;2024-02-21T06:12:36;23.63;;;9.70;;
85131;SDS011;75493;51.772;19.464;2024-02-21T06:15:02;18.45;;;10.32;;
85131;SDS011;75493;51.772;19.464;2024-02-21T06:17:29;18.15;;;9.10;;
85131;SDS011;75493;51.772;19.464;2024-02-21T06:19:55;26.02;;;10.95;;
85131;SDS011;75493;51.772;19.464;2024-02-21T06:22:20;27.77;;;10.80;;
85131;SDS011;75493;51.772;19.464;2024-02-21T06:24:46;23.55;;;12.30;;
85131;SDS011;75493;51.772;19.464;2024-02-21T06:27:12;23.17;;;11.20;;
85131;SDS011;75493;51.772;19.464;2024-02-21T06:29:41;22.88;;;10.98;;
85131;SDS011;75493;51.772;19.464;2024-02-21T06:32:07;21.67;;;9.95;;
85131;SDS011;75493;51.772;19.464;2024-02-21T06:34:33;20.65;;;9.75;;
85131;SDS011;75493;51.772;19.464;2024-02-21T06:36:59;22.10;;;9.23;;
85131;SDS011;75493;51.772;19.464;2024-02-21T06:39:25;19.92;;;9.98;;
85131;SDS011;75493;51.772;19.464;2024-02-21T06:41:51;22.10;;;9.98;;
85131;SDS011;75493;51.772;19.464;2024-02-21T06:44:18;21.75;;;10.20;;
85131;SDS011;75493;51.772;19.464;2024-02-21T06:46:45;17.63;;;9.90;;
85131;SDS011;75493;51.772;19.464;2024-02-21T06:49:11;16.88;;;8.27;;
85131;SDS011;75493;51.772;19.464;2024-02-21T06:51:43;18.33;;;10.13;;
85131;SDS011;75493;51.772;19.464;2024-02-21T06:54:10;19.92;;;10.77;;
85131;SDS011;75493;51.772;19.464;2024-02-21T06:56:36;24.67;;;10.27;;
85131;SDS011;75493;51.772;19.464;2024-02-21T06:59:02;19.23;;;8.93;;
85131;SDS011;75493;51.772;19.464;2024-02-21T07:01:29;20.75;;;9.70;;
85131;SDS011;75493;51.772;19.464;2024-02-21T07:03:55;19.45;;;9.48;;
85131;SDS011;75493;51.772;19.464;2024-02-21T07:06:21;17.95;;;8.93;;
85131;SDS011;75493;51.772;19.464;2024-02-21T07:08:47;17.38;;;9.52;;
85131;SDS011;75493;51.772;19.464;2024-02-21T07:11:13;21.17;;;9.32;;
85131;SDS011;75493;51.772;19.464;2024-02-21T07:13:39;19.25;;;8.32;;
85131;SDS011;75493;51.772;19.464;2024-02-21T07:16:05;17.20;;;8.23;;
85131;SDS011;75493;51.772;19.464;2024-02-21T07:18:31;19.17;;;9.52;;
85131;SDS011;75493;51.772;19.464;2024-02-21T07:20:57;20.02;;;9.02;;
85131;SDS011;75493;51.772;19.464;2024-02-21T07:23:23;17.80;;;9.30;;
85131;SDS011;75493;51.772;19.464;2024-02-21T07:25:49;26.98;;;9.52;;
85131;SDS011;75493;51.772;19.464;2024-02-21T07:28:15;19.33;;;9.73;;
85131;SDS011;75493;51.772;19.464;2024-02-21T07:30:42;20.35;;;9.00;;
85131;SDS011;75493;51.772;19.464;2024-02-21T07:33:08;18.55;;;8.32;;
85131;SDS011;75493;51.772;19.464;2024-02-21T07:35:34;19.17;;;8.70;;
85131;SDS011;75493;51.772;19.464;2024-02-21T07:38:02;21.05;;;8.95;;
85131;SDS011;75493;51.772;19.464;2024-02-21T07:40:29;21.05;;;10.30;;
85131;SDS011;75493;51.772;19.464;2024-02-21T07:42:55;20.90;;;9.02;;
85131;SDS011;75493;51.772;19.464;2024-02-21T07:45:20;20.67;;;8.50;;
85131;SDS011;75493;51.772;19.464;2024-02-21T07:47:48;19.65;;;9.65;;
85131;SDS011;75493;51.772;19.464;2024-02-21T07:50:14;17.75;;;9.20;;
85131;SDS011;75493;51.772;19.464;2024-02-21T07:52:40;15.32;;;8.25;;
85131;SDS011;75493;51.772;19.464;2024-02-21T07:55:07;20.17;;;9.15;;
85131;SDS011;75493;51.772;19.464;2024-02-21T07:57:35;19.17;;;9.90;;
85131;SDS011;75493;51.772;19.464;2024-02-21T08:00:01;22.00;;;9.57;;
85131;SDS011;75493;51.772;19.464;2024-02-21T08:02:29;16.90;;;8.38;;
85131;SDS011;75493;51.772;19.464;2024-02-21T08:04:54;19.58;;;9.43;;
85131;SDS011;75493;51.772;19.464;2024-02-21T08:07:20;16.60;;;8.70;;
85131;SDS011;75493;51.772;19.464;2024-02-21T08:09:46;19.58;;;9.40;;
85131;SDS011;75493;51.772;19.464;2024-02-21T08:12:12;15.27;;;7.93;;
85131;SDS011;75493;51.772;19.464;2024-02-21T08:14:38;18.55;;;9.57;;
85131;SDS011;75493;51.772;19.464;2024-02-21T08:17:04;19.63;;;9.05;;
85131;SDS011;75493;51.772;19.464;2024-02-21T08:19:30;19.63;;;7.85;;
85131;SDS011;75493;51.772;19.464;2024-02-21T08:21:56;17.70;;;9.10;;
85131;SDS011;75493;51.772;19.464;2024-02-21T08:24:22;17.27;;;8.65;;
85131;SDS011;75493;51.772;19.464;2024-02-21T08:26:48;19.10;;;7.70;;
85131;SDS011;75493;51.772;19.464;2024-02-21T08:29:14;16.60;;;8.50;;
85131;SDS011;75493;51.772;19.464;2024-02-21T08:31:40;18.88;;;8.43;;
85131;SDS011;75493;51.772;19.464;2024-02-21T08:34:06;20.95;;;9.25;;
85131;SDS011;75493;51.772;19.464;2024-02-21T08:36:33;18.15;;;7.95;;
85131;SDS011;75493;51.772;19.464;2024-02-21T08:38:59;14.45;;;8.85;;
85131;SDS011;75493;51.772;19.464;2024-02-21T08:41:25;16.95;;;9.25;;
85131;SDS011;75493;51.772;19.464;2024-02-21T08:43:52;18.75;;;9.77;;
85131;SDS011;75493;51.772;19.464;2024-02-21T08:46:18;23.13;;;9.55;;
85131;SDS011;75493;51.772;19.464;2024-02-21T08:48:45;17.83;;;8.85;;
85131;SDS011;75493;51.772;19.464;2024-02-21T08:51:11;17.98;;;8.23;;
85131;SDS011;75493;51.772;19.464;2024-02-21T08:53:37;15.93;;;8.25;;
85131;SDS011;75493;51.772;19.464;2024-02-21T08:56:03;18.58;;;7.03;;
85131;SDS011;75493;51.772;19.464;2024-02-21T08:58:29;18.63;;;8.27;;
85131;SDS011;75493;51.772;19.464;2024-02-21T09:00:55;15.32;;;8.73;;
85131;SDS011;75493;51.772;19.464;2024-02-21T09:03:22;17.15;;;7.85;;
85131;SDS011;75493;51.772;19.464;2024-02-21T09:05:48;13.15;;;7.80;;
85131;SDS011;75493;51.772;19.464;2024-02-21T09:08:14;17.40;;;8.40;;
85131;SDS011;75493;51.772;19.464;2024-02-21T09:10:40;20.73;;;8.20;;
85131;SDS011;75493;51.772;19.464;2024-02-21T09:13:06;18.63;;;8.65;;
85131;SDS011;75493;51.772;19.464;2024-02-21T09:15:35;14.48;;;7.65;;
85131;SDS011;75493;51.772;19.464;2024-02-21T09:18:01;13.18;;;7.80;;
85131;SDS011;75493;51.772;19.464;2024-02-21T09:20:27;13.40;;;6.95;;
85131;SDS011;75493;51.772;19.464;2024-02-21T09:22:54;12.77;;;7.45;;
85131;SDS011;75493;51.772;19.464;2024-02-21T09:25:20;12.30;;;7.07;;
85131;SDS011;75493;51.772;19.464;2024-02-21T09:27:46;12.73;;;6.82;;
85131;SDS011;75493;51.772;19.464;2024-02-21T09:30:12;14.25;;;7.50;;
85131;SDS011;75493;51.772;19.464;2024-02-21T09:32:38;15.98;;;8.00;;
85131;SDS011;75493;51.772;19.464;2024-02-21T09:35:04;12.38;;;7.18;;
85131;SDS011;75493;51.772;19.464;2024-02-21T09:37:30;12.95;;;6.82;;
85131;SDS011;75493;51.772;19.464;2024-02-21T09:39:56;14.63;;;8.90;;
85131;SDS011;75493;51.772;19.464;2024-02-21T09:42:22;20.52;;;12.48;;
85131;SDS011;75493;51.772;19.464;2024-02-21T09:44:51;17.00;;;10.93;;
85131;SDS011;75493;51.772;19.464;2024-02-21T09:47:19;19.40;;;11.27;;
85131;SDS011;75493;51.772;19.464;2024-02-21T09:49:48;16.98;;;10.02;;
85131;SDS011;75493;51.772;19.464;2024-02-21T09:52:14;25.70;;;14.15;;
85131;SDS011;75493;51.772;19.464;2024-02-21T09:54:41;19.08;;;10.40;;
85131;SDS011;75493;51.772;19.464;2024-02-21T09:57:09;15.07;;;8.73;;
85131;SDS011;75493;51.772;19.464;2024-02-21T09:59:37;16.55;;;8.40;;
85131;SDS011;75493;51.772;19.464;2024-02-21T10:02:03;15.10;;;10.02;;
85131;SDS011;75493;51.772;19.464;2024-02-21T10:04:30;17.48;;;9.30;;
85131;SDS011;75493;51.772;19.464;2024-02-21T10:06:57;16.35;;;7.38;;
85131;SDS011;75493;51.772;19.464;2024-02-21T10:09:23;14.00;;;6.70;;
85131;SDS011;75493;51.772;19.464;2024-02-21T10:11:52;11.93;;;6.82;;
85131;SDS011;75493;51.772;19.464;2024-02-21T10:14:18;12.52;;;6.88;;
85131;SDS011;75493;51.772;19.464;2024-02-21T10:16:55;13.43;;;7.18;;
85131;SDS011;75493;51.772;19.464;2024-02-21T10:19:23;14.35;;;6.85;;
85131;SDS011;75493;51.772;19.464;2024-02-21T10:22:05;11.25;;;6.47;;
85131;SDS011;75493;51.772;19.464;2024-02-21T10:24:32;16.20;;;7.35;;
85131;SDS011;75493;51.772;19.464;2024-02-21T10:27:05;16.20;;;7.38;;
85131;SDS011;75493;51.772;19.464;2024-02-21T10:29:35;10.88;;;6.30;;
85131;SDS011;75493;51.772;19.464;2024-02-21T10:32:08;17.75;;;7.25;;
85131;SDS011;75493;51.772;19.464;2024-02-21T10:34:34;14.57;;;7.07;;
85131;SDS011;75493;51.772;19.464;2024-02-21T10:37:01;17.38;;;8.05;;
85131;SDS011;75493;51.772;19.464;2024-02-21T10:39:30;16.02;;;7.50;;
85131;SDS011;75493;51.772;19.464;2024-02-21T10:41:56;13.15;;;7.60;;
85131;SDS011;75493;51.772;19.464;2024-02-21T10:44:26;13.60;;;7.47;;
85131;SDS011;75493;51.772;19.464;2024-02-21T10:46:53;13.55;;;7.75;;
85131;SDS011;75493;51.772;19.464;2024-02-21T10:49:22;12.98;;;6.95;;
85131;SDS011;75493;51.772;19.464;2024-02-21T10:51:50;15.80;;;8.45;;
85131;SDS011;75493;51.772;19.464;2024-02-21T10:57:03;16.38;;;6.40;;
85131;SDS011;75493;51.772;19.464;2024-02-21T10:59:30;10.25;;;6.80;;
85131;SDS011;75493;51.772;19.464;2024-02-21T11:01:57;14.95;;;7.05;;
85131;SDS011;75493;51.772;19.464;2024-02-21T11:04:23;14.43;;;7.00;;
85131;SDS011;75493;51.772;19.464;2024-02-21T11:06:49;13.27;;;6.82;;
85131;SDS011;75493;51.772;19.464;2024-02-21T11:09:16;17.60;;;8.10;;
85131;SDS011;75493;51.772;19.464;2024-02-21T11:11:45;13.68;;;7.85;;
85131;SDS011;75493;51.772;19.464;2024-02-21T11:14:11;13.98;;;6.90;;
85131;SDS011;75493;51.772;19.464;2024-02-21T11:16:43;15.98;;;7.68;;
85131;SDS011;75493;51.772;19.464;2024-02-21T11:19:30;14.73;;;7.30;;
85131;SDS011;75493;51.772;19.464;2024-02-21T11:21:56;12.52;;;7.28;;
85131;SDS011;75493;51.772;19.464;2024-02-21T11:24:32;11.93;;;6.93;;
85131;SDS011;75493;51.772;19.464;2024-02-21T11:27:12;12.35;;;7.18;;
85131;SDS011;75493;51.772;19.464;2024-02-21T11:29:47;12.60;;;6.57;;
85131;SDS011;75493;51.772;19.464;2024-02-21T11:32:16;13.57;;;6.47;;
85131;SDS011;75493;51.772;19.464;2024-02-21T11:34:53;10.77;;;6.30;;
85131;SDS011;75493;51.772;19.464;2024-02-21T11:37:19;11.65;;;6.30;;
85131;SDS011;75493;51.772;19.464;2024-02-21T11:39:45;12.80;;;5.63;;
85131;SDS011;75493;51.772;19.464;2024-02-21T11:42:11;14.20;;;6.75;;
85131;SDS011;75493;51.772;19.464;2024-02-21T11:44:38;10.50;;;5.38;;
85131;SDS011;75493;51.772;19.464;2024-02-21T11:47:08;13.13;;;5.75;;
85131;SDS011;75493;51.772;19.464;2024-02-21T11:49:36;11.00;;;5.85;;
85131;SDS011;75493;51.772;19.464;2024-02-21T11:52:03;12.38;;;5.95;;
85131;SDS011;75493;51.772;19.464;2024-02-21T11:54:32;12.05;;;6.60;;
85131;SDS011;75493;51.772;19.464;2024-02-21T11:56:59;13.65;;;7.28;;
85131;SDS011;75493;51.772;19.464;2024-02-21T11:59:25;14.85;;;6.60;;
85131;SDS011;75493;51.772;19.464;2024-02-21T12:01:52;10.35;;;6.25;;
85131;SDS011;75493;51.772;19.464;2024-02-21T12:04:18;11.25;;;6.55;;
85131;SDS011;75493;51.772;19.464;2024-02-21T12:06:45;12.95;;;5.85;;
85131;SDS011;75493;51.772;19.464;2024-02-21T12:09:14;12.02;;;6.53;;
85131;SDS011;75493;51.772;19.464;2024-02-21T12:11:41;10.55;;;5.80;;
85131;SDS011;75493;51.772;19.464;2024-02-21T12:14:07;10.60;;;5.80;;
85131;SDS011;75493;51.772;19.464;2024-02-21T12:16:34;15.30;;;6.82;;
85131;SDS011;75493;51.772;19.464;2024-02-21T12:19:02;11.65;;;6.57;;
85131;SDS011;75493;51.772;19.464;2024-02-21T12:21:31;12.88;;;6.70;;
85131;SDS011;75493;51.772;19.464;2024-02-21T12:24:00;14.98;;;7.18;;
85131;SDS011;75493;51.772;19.464;2024-02-21T12:26:36;9.82;;;5.65;;
85131;SDS011;75493;51.772;19.464;2024-02-21T12:29:02;12.32;;;5.90;;
85131;SDS011;75493;51.772;19.464;2024-02-21T12:31:28;11.20;;;5.60;;
85131;SDS011;75493;51.772;19.464;2024-02-21T12:33:54;15.35;;;6.47;;
85131;SDS011;75493;51.772;19.464;2024-02-21T12:39:24;12.05;;;6.50;;
85131;SDS011;75493;51.772;19.464;2024-02-21T12:41:53;12.95;;;6.03;;
85131;SDS011;75493;51.772;19.464;2024-02-21T12:44:21;10.00;;;6.05;;
85131;SDS011;75493;51.772;19.464;2024-02-21T12:46:47;10.90;;;5.57;;
85131;SDS011;75493;51.772;19.464;2024-02-21T12:49:17;11.43;;;5.70;;
85131;SDS011;75493;51.772;19.464;2024-02-21T12:51:44;8.85;;;5.15;;
85131;SDS011;75493;51.772;19.464;2024-02-21T12:54:11;14.20;;;6.55;;
85131;SDS011;75493;51.772;19.464;2024-02-21T12:56:38;13.60;;;5.80;;
85131;SDS011;75493;51.772;19.464;2024-02-21T12:59:05;10.75;;;5.85;;
85131;SDS011;75493;51.772;19.464;2024-02-21T13:01:34;12.57;;;6.10;;
85131;SDS011;75493;51.772;19.464;2024-02-21T13:03:59;14.57;;;5.45;;
85131;SDS011;75493;51.772;19.464;2024-02-21T13:06:26;13.55;;;5.95;;
85131;SDS011;75493;51.772;19.464;2024-02-21T13:08:52;9.02;;;6.07;;
85131;SDS011;75493;51.772;19.464;2024-02-21T13:11:18;12.43;;;5.68;;
85131;SDS011;75493;51.772;19.464;2024-02-21T13:13:45;10.55;;;4.80;;
85131;SDS011;75493;51.772;19.464;2024-02-21T13:16:10;9.63;;;5.32;;
85131;SDS011;75493;51.772;19.464;2024-02-21T13:18:36;12.95;;;5.63;;
85131;SDS011;75493;51.772;19.464;2024-02-21T13:21:04;9.38;;;5.80;;
85131;SDS011;75493;51.772;19.464;2024-02-21T13:23:30;10.55;;;5.60;;
85131;SDS011;75493;51.772;19.464;2024-02-21T13:25:56;11.75;;;5.90;;
85131;SDS011;75493;51.772;19.464;2024-02-21T13:28:22;16.65;;;6.78;;
85131;SDS011;75493;51.772;19.464;2024-02-21T13:30:48;17.58;;;8.20;;
85131;SDS011;75493;51.772;19.464;2024-02-21T13:33:13;18.83;;;8.25;;
85131;SDS011;75493;51.772;19.464;2024-02-21T13:35:39;12.93;;;6.30;;
85131;SDS011;75493;51.772;19.464;2024-02-21T13:38:05;11.48;;;6.72;;
85131;SDS011;75493;51.772;19.464;2024-02-21T13:40:33;12.95;;;6.15;;
85131;SDS011;75493;51.772;19.464;2024-02-21T13:42:59;9.57;;;5.90;;
85131;SDS011;75493;51.772;19.464;2024-02-21T13:45:26;11.57;;;6.15;;
85131;SDS011;75493;51.772;19.464;2024-02-21T13:47:52;16.08;;;6.65;;
85131;SDS011;75493;51.772;19.464;2024-02-21T13:50:18;11.65;;;6.28;;
85131;SDS011;75493;51.772;19.464;2024-02-21T13:52:44;13.65;;;6.65;;
85131;SDS011;75493;51.772;19.464;2024-02-21T13:55:11;10.07;;;5.35;;
85131;SDS011;75493;51.772;19.464;2024-02-21T13:57:37;17.33;;;5.68;;
85131;SDS011;75493;51.772;19.464;2024-02-21T14:00:04;10.25;;;5.28;;
85131;SDS011;75493;51.772;19.464;2024-02-21T14:02:30;10.30;;;5.70;;
85131;SDS011;75493;51.772;19.464;2024-02-21T14:04:56;10.68;;;5.05;;
85131;SDS011;75493;51.772;19.464;2024-02-21T14:07:22;10.48;;;5.15;;
85131;SDS011;75493;51.772;19.464;2024-02-21T14:09:48;14.80;;;6.30;;
85131;SDS011;75493;51.772;19.464;2024-02-21T14:12:15;13.07;;;5.57;;
85131;SDS011;75493;51.772;19.464;2024-02-21T14:14:43;10.20;;;5.38;;
85131;SDS011;75493;51.772;19.464;2024-02-21T14:17:09;12.50;;;5.97;;
85131;SDS011;75493;51.772;19.464;2024-02-21T14:19:35;13.32;;;5.38;;
85131;SDS011;75493;51.772;19.464;2024-02-21T14:22:02;10.70;;;4.47;;
85131;SDS011;75493;51.772;19.464;2024-02-21T14:24:28;8.20;;;5.10;;
85131;SDS011;75493;51.772;19.464;2024-02-21T14:26:54;14.63;;;6.25;;